Time;durP1;ratioP1;P1;durP2;ratioP2;P2;SDS_P1;SDS_P2;PMS_P1;PMS_P2;Temp;Humidity;BMP_temperature;BMP_pressure;BME280_temperature;BME280_humidity;BME280_pressure;Samples;Min_cycle;Max_cycle;Signal;HPM_P1;HPM_P2
2023/10/31 00:00:17;;;;;;;8.82;7.32;;;12.00;99.90;;;;;;5023301;28;20045;-72
2023/10/31 00:02:44;;;;;;;9.38;7.28;;;12.00;99.90;;;;;;5030665;28;20083;-73
2023/10/31 00:05:11;;;;;;;7.55;6.80;;;12.00;99.90;;;;;;5009239;28;20064;-71
2023/10/31 00:07:38;;;;;;;7.55;6.38;;;12.00;99.90;;;;;;5024839;28;20037;-72
2023/10/31 00:10:05;;;;;;;7.75;5.38;;;12.00;99.90;;;;;;5029045;28;20457;-72
2023/10/31 00:12:32;;;;;;;8.85;6.38;;;12.00;99.90;;;;;;5044381;28;20042;-70
2023/10/31 00:14:59;;;;;;;7.68;6.93;;;12.10;99.90;;;;;;5059876;28;20056;-71
2023/10/31 00:17:25;;;;;;;7.00;6.30;;;12.00;99.90;;;;;;5050254;28;20053;-72
2023/10/31 00:19:52;;;;;;;6.75;5.97;;;12.10;99.90;;;;;;5032558;28;20045;-74
2023/10/31 00:22:19;;;;;;;7.72;7.00;;;12.10;99.90;;;;;;5024251;28;20720;-72
2023/10/31 00:24:46;;;;;;;6.55;5.90;;;12.10;99.90;;;;;;5030277;28;20679;-73
2023/10/31 00:27:14;;;;;;;6.10;5.13;;;12.10;99.90;;;;;;5027035;28;20047;-73
2023/10/31 00:29:41;;;;;;;4.80;4.40;;;12.10;99.90;;;;;;5030874;28;20045;-73
2023/10/31 00:32:07;;;;;;;9.13;4.65;;;12.10;99.90;;;;;;5026820;28;20051;-73
2023/10/31 00:34:34;;;;;;;4.65;4.20;;;12.10;99.90;;;;;;5022879;28;20041;-74
2023/10/31 00:37:01;;;;;;;7.07;3.80;;;12.10;99.90;;;;;;5009149;28;20373;-75
2023/10/31 00:39:28;;;;;;;3.95;3.60;;;12.10;99.90;;;;;;5027786;28;20067;-72
2023/10/31 00:41:55;;;;;;;4.07;3.58;;;12.10;99.90;;;;;;5028403;28;20399;-72
2023/10/31 00:44:22;;;;;;;3.92;3.53;;;12.20;99.90;;;;;;5025317;28;20075;-72
2023/10/31 00:46:48;;;;;;;7.07;5.00;;;12.20;99.90;;;;;;5030242;28;20036;-72
2023/10/31 00:49:18;;;;;;;6.60;5.80;;;12.10;99.90;;;;;;5027029;28;20048;-73
2023/10/31 00:51:45;;;;;;;9.23;6.85;;;12.10;99.90;;;;;;5029338;28;20526;-73
2023/10/31 00:54:12;;;;;;;11.68;7.55;;;12.10;99.90;;;;;;5024743;28;20483;-72
2023/10/31 00:56:39;;;;;;;12.13;9.57;;;12.10;99.90;;;;;;5027960;28;20061;-71
2023/10/31 00:59:06;;;;;;;15.98;9.40;;;12.00;99.90;;;;;;5014837;28;20037;-72
2023/10/31 01:01:33;;;;;;;14.13;10.93;;;12.00;99.90;;;;;;5026412;28;20038;-71
2023/10/31 01:04:00;;;;;;;13.85;10.15;;;12.00;99.90;;;;;;5029188;28;20049;-72
2023/10/31 01:06:27;;;;;;;16.67;10.80;;;12.00;99.90;;;;;;5024784;28;20041;-72
2023/10/31 01:08:54;;;;;;;14.00;10.57;;;12.00;99.90;;;;;;5031212;28;20556;-73
2023/10/31 01:11:21;;;;;;;13.57;9.98;;;12.00;99.90;;;;;;5023401;28;20516;-73
2023/10/31 01:13:48;;;;;;;9.93;8.48;;;12.00;99.90;;;;;;5030068;28;20040;-71
2023/10/31 01:16:17;;;;;;;11.43;8.48;;;11.90;99.90;;;;;;5027204;28;20041;-71
2023/10/31 01:18:43;;;;;;;9.90;8.00;;;12.00;99.90;;;;;;5024654;28;20507;-70
2023/10/31 01:21:10;;;;;;;10.10;7.75;;;12.00;99.90;;;;;;5029872;28;20102;-72
2023/10/31 01:23:37;;;;;;;9.80;6.28;;;12.00;99.90;;;;;;5026803;28;20041;-72
2023/10/31 01:26:04;;;;;;;7.28;5.85;;;12.10;99.90;;;;;;5029828;28;20127;-71
2023/10/31 01:28:31;;;;;;;6.35;5.55;;;12.10;99.90;;;;;;5025046;28;20525;-72
2023/10/31 01:30:57;;;;;;;6.10;4.93;;;12.10;99.90;;;;;;5030431;28;20041;-72
2023/10/31 01:33:24;;;;;;;4.47;4.07;;;12.20;99.90;;;;;;5026294;28;20056;-70
2023/10/31 01:35:51;;;;;;;4.13;3.72;;;12.20;99.90;;;;;;5012387;28;20124;-74
2023/10/31 01:38:18;;;;;;;3.63;3.30;;;12.30;99.90;;;;;;5011394;28;20049;-72
2023/10/31 01:40:49;;;;;;;3.30;2.83;;;12.30;99.90;;;;;;5044333;28;20045;-72
2023/10/31 01:43:32;;;;;;;3.47;2.60;;;12.20;99.90;;;;;;5016288;28;20052;-72
2023/10/31 01:45:59;;;;;;;4.90;3.42;;;12.20;99.90;;;;;;5026618;28;20118;-73
2023/10/31 01:48:29;;;;;;;3.35;3.05;;;12.20;99.90;;;;;;5021455;28;20236;-71
2023/10/31 01:50:59;;;;;;;4.70;4.40;;;12.20;99.90;;;;;;5028322;28;20124;-72
2023/10/31 01:53:28;;;;;;;5.72;5.30;;;12.10;99.90;;;;;;5007896;28;20142;-71
2023/10/31 01:55:56;;;;;;;6.95;6.40;;;11.90;99.90;;;;;;5026412;28;20573;-72
2023/10/31 01:58:28;;;;;;;7.00;6.50;;;11.80;99.90;;;;;;5025242;28;20048;-72
2023/10/31 02:00:55;;;;;;;6.90;6.50;;;11.70;99.90;;;;;;5012109;28;20048;-72
2023/10/31 02:03:22;;;;;;;6.03;5.63;;;11.60;99.90;;;;;;5025411;28;20718;-72
2023/10/31 02:05:51;;;;;;;6.75;6.35;;;11.50;99.90;;;;;;5021786;28;20051;-72
2023/10/31 02:08:19;;;;;;;6.97;6.68;;;11.40;99.90;;;;;;5020455;28;20052;-73
2023/10/31 02:10:48;;;;;;;6.93;6.22;;;11.40;99.90;;;;;;5024401;28;20061;-72
2023/10/31 02:13:17;;;;;;;6.72;6.40;;;11.30;99.90;;;;;;5022916;28;20083;-71
2023/10/31 02:15:45;;;;;;;7.13;6.78;;;11.10;99.90;;;;;;5023144;28;20596;-72
2023/10/31 02:18:12;;;;;;;7.65;7.25;;;11.10;99.90;;;;;;5023406;28;20681;-72
2023/10/31 02:20:39;;;;;;;7.15;6.75;;;11.00;99.90;;;;;;5021394;28;20038;-72
2023/10/31 02:23:06;;;;;;;7.95;7.55;;;10.90;99.90;;;;;;5026794;28;20041;-73
2023/10/31 02:25:33;;;;;;;8.23;7.55;;;10.80;99.90;;;;;;5020525;28;20043;-72
2023/10/31 02:28:00;;;;;;;8.20;7.60;;;10.80;99.90;;;;;;5024121;28;20044;-73
2023/10/31 02:30:27;;;;;;;8.02;7.53;;;10.70;99.90;;;;;;5025007;28;20045;-74
2023/10/31 02:32:55;;;;;;;8.50;7.78;;;10.70;99.90;;;;;;5024192;28;20033;-71
2023/10/31 02:35:22;;;;;;;7.65;7.15;;;10.60;99.90;;;;;;5005060;28;20053;-72
2023/10/31 02:37:49;;;;;;;7.40;7.00;;;10.60;99.90;;;;;;5025075;28;20120;-72
2023/10/31 02:40:16;;;;;;;8.63;7.82;;;10.60;99.90;;;;;;5020187;28;20036;-72
2023/10/31 02:42:43;;;;;;;7.88;7.38;;;10.60;99.90;;;;;;5023468;28;20048;-73
2023/10/31 02:45:10;;;;;;;7.43;6.90;;;10.60;99.90;;;;;;5026454;28;20044;-72
2023/10/31 02:47:37;;;;;;;7.15;6.65;;;10.50;99.90;;;;;;5003447;28;20052;-72
2023/10/31 02:50:04;;;;;;;7.65;7.15;;;10.50;99.90;;;;;;5027248;28;20041;-73
2023/10/31 02:52:31;;;;;;;7.70;7.20;;;10.50;99.90;;;;;;5019447;28;20496;-71
2023/10/31 02:54:58;;;;;;;7.32;6.88;;;10.50;99.90;;;;;;5013121;28;20056;-73
2023/10/31 02:57:25;;;;;;;7.28;6.90;;;10.50;99.90;;;;;;5020039;28;20520;-73
2023/10/31 02:59:52;;;;;;;8.23;7.63;;;10.50;99.90;;;;;;5017976;28;20998;-71
2023/10/31 03:02:18;;;;;;;8.00;7.60;;;10.50;99.90;;;;;;5022251;28;20620;-71
2023/10/31 03:04:47;;;;;;;8.07;7.68;;;10.40;99.90;;;;;;5022509;28;20124;-72
2023/10/31 03:07:14;;;;;;;9.30;8.90;;;10.40;99.90;;;;;;5008791;28;20123;-73
2023/10/31 03:09:41;;;;;;;9.50;9.05;;;10.40;99.90;;;;;;5020999;28;20142;-72
2023/10/31 03:12:08;;;;;;;9.30;8.82;;;10.30;99.90;;;;;;5026416;28;20048;-73
2023/10/31 03:14:35;;;;;;;9.75;9.15;;;10.30;99.90;;;;;;5005124;28;20045;-73
2023/10/31 03:17:01;;;;;;;10.60;10.07;;;10.30;99.90;;;;;;5028611;28;20364;-73
2023/10/31 03:19:28;;;;;;;10.70;10.13;;;10.20;99.90;;;;;;5019535;28;20041;-73
2023/10/31 03:21:55;;;;;;;9.80;9.35;;;10.20;99.90;;;;;;5024705;28;20049;-74
2023/10/31 03:24:21;;;;;;;10.63;10.07;;;10.10;99.90;;;;;;5028166;28;20048;-74
2023/10/31 03:26:48;;;;;;;11.48;10.85;;;10.10;99.90;;;;;;5027512;28;20671;-74
2023/10/31 03:29:15;;;;;;;11.00;10.50;;;10.10;99.90;;;;;;5013626;28;20114;-73
2023/10/31 03:31:42;;;;;;;11.68;10.73;;;10.00;99.90;;;;;;5020628;28;20049;-74
2023/10/31 03:34:09;;;;;;;11.75;10.93;;;10.00;99.90;;;;;;5025841;28;20398;-73
2023/10/31 03:36:35;;;;;;;11.30;10.60;;;10.00;99.90;;;;;;5023417;28;20103;-72
2023/10/31 03:39:02;;;;;;;12.73;11.93;;;10.00;99.90;;;;;;5028025;28;20049;-73
2023/10/31 03:41:29;;;;;;;13.20;12.30;;;10.00;99.90;;;;;;5020209;28;20156;-73
2023/10/31 03:43:56;;;;;;;13.95;12.95;;;10.00;99.90;;;;;;5028510;28;20220;-73
2023/10/31 03:46:23;;;;;;;12.75;11.75;;;9.90;99.90;;;;;;5025342;28;20776;-72
2023/10/31 03:48:50;;;;;;;13.70;12.50;;;9.90;99.90;;;;;;5025497;28;20103;-73
2023/10/31 03:51:16;;;;;;;13.15;12.15;;;9.90;99.90;;;;;;5027730;28;20041;-73
2023/10/31 03:53:43;;;;;;;15.23;14.02;;;9.90;99.90;;;;;;5024370;28;20064;-74
2023/10/31 03:56:10;;;;;;;14.57;13.38;;;9.80;99.90;;;;;;5029527;28;20059;-73
2023/10/31 03:58:37;;;;;;;14.95;13.75;;;9.90;99.90;;;;;;5009258;28;20049;-74
2023/10/31 04:01:04;;;;;;;15.38;14.13;;;9.90;99.90;;;;;;5014582;28;20396;-74
2023/10/31 04:03:31;;;;;;;14.57;13.18;;;9.80;99.90;;;;;;5024914;28;20041;-74
2023/10/31 04:05:58;;;;;;;15.00;13.70;;;9.80;99.90;;;;;;5026486;28;20728;-73
2023/10/31 04:08:25;;;;;;;14.80;13.43;;;9.80;99.90;;;;;;5009690;28;20044;-73
2023/10/31 04:10:52;;;;;;;15.65;14.23;;;9.80;99.90;;;;;;5023096;28;20132;-74
2023/10/31 04:13:19;;;;;;;16.08;14.57;;;9.80;99.90;;;;;;5022733;28;20709;-75
2023/10/31 04:15:46;;;;;;;14.40;13.10;;;9.80;99.90;;;;;;5024555;28;21116;-74
2023/10/31 04:18:13;;;;;;;15.55;14.13;;;9.80;99.90;;;;;;5032136;28;20049;-74
2023/10/31 04:20:40;;;;;;;15.52;14.13;;;9.80;99.90;;;;;;5046051;28;20135;-72
2023/10/31 04:23:08;;;;;;;15.18;13.88;;;9.80;99.90;;;;;;5060438;28;20025;-73
2023/10/31 04:25:34;;;;;;;16.85;15.43;;;9.70;99.90;;;;;;5053099;28;20041;-72
2023/10/31 04:28:01;;;;;;;15.40;13.90;;;9.70;99.90;;;;;;5016336;28;20048;-72
2023/10/31 04:30:28;;;;;;;15.77;14.38;;;9.70;99.90;;;;;;5026861;28;20839;-73
2023/10/31 04:32:55;;;;;;;14.10;12.80;;;9.70;99.90;;;;;;5011483;28;20739;-73
2023/10/31 04:35:22;;;;;;;15.13;13.48;;;9.70;99.90;;;;;;5027231;28;20812;-73
2023/10/31 04:37:49;;;;;;;14.80;13.38;;;9.70;99.90;;;;;;5025741;28;20047;-74
2023/10/31 04:40:16;;;;;;;14.77;13.07;;;9.70;99.90;;;;;;5030834;28;20041;-74
2023/10/31 04:42:43;;;;;;;12.95;11.75;;;9.60;99.90;;;;;;5022047;28;20041;-71
2023/10/31 04:45:10;;;;;;;11.70;10.70;;;9.60;99.90;;;;;;5011987;28;20043;-74
2023/10/31 04:47:36;;;;;;;17.45;12.43;;;9.60;99.90;;;;;;5022988;28;20041;-73
2023/10/31 04:50:04;;;;;;;15.25;12.60;;;9.60;99.90;;;;;;5011556;28;20059;-73
2023/10/31 04:52:31;;;;;;;12.32;11.05;;;9.60;99.90;;;;;;5019341;28;20634;-73
2023/10/31 04:54:58;;;;;;;16.77;11.55;;;9.50;99.90;;;;;;5025477;28;20044;-73
2023/10/31 04:57:25;;;;;;;11.60;9.65;;;9.40;99.90;;;;;;5019398;28;20064;-72
2023/10/31 04:59:54;;;;;;;11.90;10.32;;;9.30;99.90;;;;;;5018301;28;20053;-72
2023/10/31 05:02:24;;;;;;;15.27;11.85;;;9.30;99.90;;;;;;5023087;28;20049;-71
2023/10/31 05:04:51;;;;;;;16.25;12.07;;;9.30;99.90;;;;;;5021667;28;20057;-71
2023/10/31 05:07:18;;;;;;;20.38;11.68;;;9.30;99.90;;;;;;5006588;28;20045;-71
2023/10/31 05:09:45;;;;;;;20.00;12.80;;;9.20;99.90;;;;;;5020817;28;22509;-70
2023/10/31 05:12:13;;;;;;;19.02;14.52;;;9.20;99.90;;;;;;5024284;28;20431;-70
2023/10/31 05:14:40;;;;;;;21.20;14.95;;;9.20;99.90;;;;;;5018966;28;20069;-71
2023/10/31 05:17:07;;;;;;;23.23;15.75;;;9.30;99.90;;;;;;5007153;28;20118;-71
2023/10/31 05:19:34;;;;;;;22.13;16.08;;;9.30;99.90;;;;;;5007453;28;20076;-72
2023/10/31 05:22:01;;;;;;;23.40;17.33;;;9.40;99.90;;;;;;5028471;28;20037;-71
2023/10/31 05:24:27;;;;;;;24.40;16.63;;;9.40;99.90;;;;;;5025412;28;20053;-70
2023/10/31 05:26:56;;;;;;;23.05;14.98;;;9.40;99.90;;;;;;5027263;28;20049;-72
2023/10/31 05:29:23;;;;;;;21.27;13.60;;;9.30;99.90;;;;;;5025604;28;20060;-72
2023/10/31 05:31:49;;;;;;;26.85;15.38;;;9.40;99.90;;;;;;5023378;28;20115;-72
2023/10/31 05:34:16;;;;;;;22.00;14.43;;;9.40;99.90;;;;;;5025445;28;20037;-71
2023/10/31 05:36:43;;;;;;;24.70;15.10;;;9.50;99.90;;;;;;5020115;28;20041;-72
2023/10/31 05:39:10;;;;;;;25.00;16.70;;;9.50;99.90;;;;;;5024279;28;20040;-72
2023/10/31 05:41:37;;;;;;;23.67;15.20;;;9.50;99.90;;;;;;5020615;28;20057;-72
2023/10/31 05:44:03;;;;;;;31.05;17.35;;;9.50;99.90;;;;;;5023886;28;20822;-71
2023/10/31 05:46:30;;;;;;;30.15;17.13;;;9.50;99.90;;;;;;5016253;28;20148;-71
2023/10/31 05:48:57;;;;;;;29.30;16.27;;;9.50;99.90;;;;;;5024344;28;20037;-72
2023/10/31 05:51:25;;;;;;;33.42;16.92;;;9.50;99.90;;;;;;5020088;28;20099;-72
2023/10/31 05:53:52;;;;;;;28.95;17.15;;;9.50;99.90;;;;;;5022552;28;20415;-72
2023/10/31 05:56:19;;;;;;;28.98;17.10;;;9.50;99.90;;;;;;5021137;28;20060;-72
2023/10/31 05:58:46;;;;;;;28.88;15.25;;;9.50;99.90;;;;;;5024734;28;20048;-71
2023/10/31 06:01:13;;;;;;;26.80;13.93;;;9.50;99.90;;;;;;5023736;28;20132;-72
2023/10/31 06:03:43;;;;;;;24.30;13.60;;;9.50;99.90;;;;;;5022695;28;20231;-72
2023/10/31 06:06:12;;;;;;;15.35;9.65;;;9.50;99.90;;;;;;5022922;28;20037;-72
2023/10/31 06:08:39;;;;;;;19.92;11.27;;;9.50;99.90;;;;;;5022453;28;20545;-71
2023/10/31 06:11:07;;;;;;;14.52;10.18;;;9.50;99.90;;;;;;5024691;28;20056;-71
2023/10/31 06:13:34;;;;;;;13.35;7.95;;;9.50;99.90;;;;;;5005585;28;20053;-71
2023/10/31 06:16:01;;;;;;;14.85;9.15;;;9.50;99.90;;;;;;5021538;28;20041;-71
2023/10/31 06:18:28;;;;;;;13.27;8.20;;;9.50;99.90;;;;;;5020725;28;20076;-71
2023/10/31 06:20:56;;;;;;;16.25;9.57;;;9.40;99.90;;;;;;5009704;28;20044;-72
2023/10/31 06:23:23;;;;;;;15.93;11.70;;;9.40;99.90;;;;;;5023140;28;20680;-72
2023/10/31 06:25:50;;;;;;;16.40;10.43;;;9.40;99.90;;;;;;5021472;28;20103;-71
2023/10/31 06:28:17;;;;;;;17.13;10.52;;;9.50;99.90;;;;;;5027256;28;20578;-72
2023/10/31 06:30:44;;;;;;;19.23;13.07;;;9.50;99.90;;;;;;5019425;28;20110;-72
2023/10/31 06:33:11;;;;;;;16.23;9.65;;;9.50;99.90;;;;;;5022156;28;20514;-72
2023/10/31 06:35:38;;;;;;;16.67;10.23;;;9.50;99.90;;;;;;5017902;28;20132;-71
2023/10/31 06:38:05;;;;;;;16.17;9.20;;;9.40;99.90;;;;;;5023560;28;21348;-71
2023/10/31 06:40:32;;;;;;;11.05;8.43;;;9.40;99.90;;;;;;5003031;28;20547;-70
2023/10/31 06:42:59;;;;;;;10.27;6.88;;;9.40;99.90;;;;;;5025923;28;20042;-72
2023/10/31 06:45:26;;;;;;;12.35;8.48;;;9.30;99.90;;;;;;5024421;28;20044;-71
2023/10/31 06:47:53;;;;;;;14.27;9.63;;;9.30;99.90;;;;;;5022619;28;20083;-71
2023/10/31 06:50:20;;;;;;;8.65;6.10;;;9.30;99.90;;;;;;5022647;28;20419;-71
2023/10/31 06:52:47;;;;;;;10.90;7.85;;;9.40;99.90;;;;;;5019026;28;20051;-71
2023/10/31 06:55:14;;;;;;;9.48;7.15;;;9.40;99.90;;;;;;5020688;28;20080;-71
2023/10/31 06:57:41;;;;;;;12.50;8.65;;;9.30;99.90;;;;;;5019348;28;20845;-72
2023/10/31 07:00:08;;;;;;;16.33;10.63;;;9.40;99.90;;;;;;5020940;28;20033;-71
2023/10/31 07:02:35;;;;;;;18.20;12.48;;;9.30;99.90;;;;;;5022429;28;20049;-71
2023/10/31 07:05:03;;;;;;;19.08;12.82;;;9.40;99.90;;;;;;5040741;28;20068;-72
2023/10/31 07:07:30;;;;;;;17.85;11.93;;;9.40;99.90;;;;;;5024784;28;20141;-72
2023/10/31 07:09:57;;;;;;;17.33;11.63;;;9.30;99.90;;;;;;5041664;28;20037;-72
2023/10/31 07:12:24;;;;;;;24.65;13.30;;;9.40;99.90;;;;;;5024239;28;20149;-71
2023/10/31 07:14:51;;;;;;;25.45;13.52;;;9.40;99.90;;;;;;5020496;28;20068;-71
2023/10/31 07:17:18;;;;;;;25.98;15.32;;;9.40;99.90;;;;;;5020146;28;20045;-71
2023/10/31 07:19:45;;;;;;;28.27;15.07;;;9.40;99.90;;;;;;5017393;28;20099;-75
2023/10/31 07:22:13;;;;;;;32.30;16.23;;;9.40;99.90;;;;;;5015248;28;20037;-72
2023/10/31 07:24:40;;;;;;;25.52;15.43;;;9.40;99.90;;;;;;5018477;28;20053;-71
2023/10/31 07:27:07;;;;;;;23.73;15.02;;;9.40;99.90;;;;;;5019526;28;20041;-71
2023/10/31 07:29:33;;;;;;;21.00;12.38;;;9.40;99.90;;;;;;5019161;28;20272;-71
2023/10/31 07:32:00;;;;;;;19.58;13.00;;;9.40;99.90;;;;;;5022378;28;20059;-74
2023/10/31 07:34:29;;;;;;;23.38;14.38;;;9.40;99.90;;;;;;5018899;28;20130;-74
2023/10/31 07:36:56;;;;;;;25.00;13.93;;;9.40;99.90;;;;;;5020376;28;20099;-74
2023/10/31 07:39:23;;;;;;;20.83;11.57;;;9.40;99.90;;;;;;5021768;28;20102;-74
2023/10/31 07:41:50;;;;;;;22.10;14.07;;;9.40;99.90;;;;;;5021144;28;20045;-74
2023/10/31 07:44:17;;;;;;;24.17;15.50;;;9.40;99.90;;;;;;5024483;28;20033;-74
2023/10/31 07:46:44;;;;;;;24.73;15.00;;;9.30;99.90;;;;;;5019470;28;20041;-74
2023/10/31 07:49:10;;;;;;;28.95;19.30;;;9.30;99.90;;;;;;5019154;28;20568;-74
2023/10/31 07:51:37;;;;;;;25.65;15.70;;;9.30;99.90;;;;;;5021847;28;20106;-74
2023/10/31 07:54:04;;;;;;;30.95;18.48;;;9.30;99.90;;;;;;5022519;28;20042;-74
2023/10/31 07:56:32;;;;;;;30.48;18.30;;;9.30;99.90;;;;;;5020718;28;20045;-74
2023/10/31 07:58:59;;;;;;;32.40;18.83;;;9.30;99.90;;;;;;5017493;28;20053;-74
2023/10/31 08:01:27;;;;;;;32.17;20.48;;;9.30;99.90;;;;;;5025781;28;20041;-74
2023/10/31 08:03:55;;;;;;;34.03;21.65;;;9.20;99.90;;;;;;5024539;28;20353;-74
2023/10/31 08:06:22;;;;;;;42.60;21.55;;;9.20;99.90;;;;;;5011824;28;20056;-74
2023/10/31 08:08:49;;;;;;;36.28;21.13;;;9.20;99.90;;;;;;5021570;28;20052;-75
2023/10/31 08:11:15;;;;;;;33.47;19.05;;;9.20;99.90;;;;;;5023128;28;20047;-76
2023/10/31 08:13:42;;;;;;;42.85;22.75;;;9.10;99.90;;;;;;5024814;28;20104;-75
2023/10/31 08:16:09;;;;;;;35.35;19.25;;;9.10;99.90;;;;;;5024329;28;20041;-75
2023/10/31 08:18:36;;;;;;;45.78;23.20;;;9.10;99.90;;;;;;5027529;28;20695;-75
2023/10/31 08:21:03;;;;;;;45.53;21.83;;;9.10;99.90;;;;;;5011425;28;20060;-75
2023/10/31 08:23:30;;;;;;;36.80;20.70;;;9.20;99.90;;;;;;5026080;28;20057;-75
2023/10/31 08:25:57;;;;;;;40.05;23.30;;;9.10;99.90;;;;;;5024114;28;20061;-75
2023/10/31 08:28:24;;;;;;;43.17;23.65;;;9.10;99.90;;;;;;5024735;28;20048;-74
2023/10/31 08:30:51;;;;;;;40.08;20.63;;;9.10;99.90;;;;;;5031216;28;20110;-74
2023/10/31 08:33:18;;;;;;;40.95;24.27;;;9.10;99.90;;;;;;5056589;28;20037;-74
2023/10/31 08:35:45;;;;;;;38.95;22.38;;;9.10;99.90;;;;;;5052586;28;20136;-74
2023/10/31 08:38:11;;;;;;;37.33;21.02;;;9.10;99.90;;;;;;5032150;28;20078;-74
2023/10/31 08:40:52;;;;;;;33.60;19.20;;;9.10;99.90;;;;;;5026755;28;20643;-75
2023/10/31 08:43:19;;;;;;;29.75;17.30;;;9.10;99.90;;;;;;5028431;28;20774;-75
2023/10/31 08:45:46;;;;;;;24.17;15.07;;;9.10;99.90;;;;;;5021883;28;20065;-75
2023/10/31 08:48:13;;;;;;;29.23;18.77;;;9.10;99.90;;;;;;5023158;28;20033;-75
2023/10/31 08:50:39;;;;;;;30.48;18.60;;;9.20;99.90;;;;;;5025537;28;20029;-74
2023/10/31 08:53:06;;;;;;;31.08;18.05;;;9.30;99.90;;;;;;5028161;28;20107;-74
2023/10/31 08:55:33;;;;;;;33.00;21.08;;;9.30;99.90;;;;;;5042106;28;20419;-74
2023/10/31 08:58:00;;;;;;;26.33;17.92;;;9.30;99.90;;;;;;5010226;28;20152;-76
2023/10/31 09:00:28;;;;;;;26.55;17.08;;;9.40;99.90;;;;;;5023225;28;20052;-73
2023/10/31 09:02:55;;;;;;;24.45;15.90;;;9.40;99.90;;;;;;5023041;28;20136;-76
2023/10/31 09:05:22;;;;;;;28.75;16.95;;;9.50;99.90;;;;;;5011103;28;20628;-75
2023/10/31 09:07:49;;;;;;;25.20;14.95;;;9.50;99.90;;;;;;5025455;28;20049;-73
2023/10/31 09:10:16;;;;;;;31.77;17.50;;;9.50;99.90;;;;;;5007170;28;20116;-73
2023/10/31 09:12:43;;;;;;;25.13;15.68;;;9.50;99.90;;;;;;5023968;28;20045;-73
2023/10/31 09:15:10;;;;;;;28.52;18.55;;;9.50;99.90;;;;;;5011547;28;20052;-72
2023/10/31 09:17:37;;;;;;;33.45;19.08;;;9.50;99.90;;;;;;5010343;28;20118;-73
2023/10/31 09:20:05;;;;;;;36.08;22.23;;;9.60;99.90;;;;;;5019989;28;20132;-74
2023/10/31 09:22:32;;;;;;;34.22;21.08;;;9.50;99.90;;;;;;5005994;28;20041;-73
2023/10/31 09:24:59;;;;;;;35.45;21.67;;;9.50;99.90;;;;;;5024375;28;20687;-73
2023/10/31 09:27:25;;;;;;;31.95;20.88;;;9.60;99.90;;;;;;5017013;28;20057;-74
2023/10/31 09:29:52;;;;;;;44.42;24.15;;;9.60;99.90;;;;;;5019079;28;20112;-73
2023/10/31 09:32:19;;;;;;;37.40;23.02;;;9.60;99.90;;;;;;5027668;28;20052;-73
2023/10/31 09:34:47;;;;;;;37.05;24.35;;;9.60;99.90;;;;;;5022213;28;20335;-73
2023/10/31 09:37:13;;;;;;;37.55;24.35;;;9.70;99.90;;;;;;5021333;28;20037;-74
2023/10/31 09:39:40;;;;;;;34.47;22.90;;;9.70;99.90;;;;;;5014680;28;20041;-73
2023/10/31 09:42:07;;;;;;;41.10;24.33;;;9.70;99.90;;;;;;5022531;28;20045;-73
2023/10/31 09:44:35;;;;;;;36.40;23.48;;;9.70;99.90;;;;;;5017060;28;20051;-73
2023/10/31 09:47:02;;;;;;;32.55;23.27;;;9.70;99.90;;;;;;5018077;28;20620;-74
2023/10/31 09:49:29;;;;;;;32.13;21.73;;;9.80;99.90;;;;;;5007232;28;20139;-74
2023/10/31 09:51:57;;;;;;;32.10;22.85;;;9.80;99.90;;;;;;5027493;28;20088;-74
2023/10/31 09:54:26;;;;;;;31.83;23.52;;;9.80;99.90;;;;;;5017540;28;20045;-73
2023/10/31 09:56:52;;;;;;;36.67;22.80;;;9.80;99.90;;;;;;5020538;28;20041;-74
2023/10/31 09:59:20;;;;;;;32.95;24.00;;;9.80;99.90;;;;;;5025346;28;20152;-73
2023/10/31 10:01:46;;;;;;;37.17;25.67;;;9.80;99.90;;;;;;5019888;28;20033;-73
2023/10/31 10:04:14;;;;;;;36.83;25.80;;;9.90;99.90;;;;;;5018809;28;20674;-73
2023/10/31 10:07:02;;;;;;;36.30;25.38;;;9.90;99.90;;;;;;5024211;28;20110;-74
2023/10/31 10:09:31;;;;;;;34.05;25.23;;;9.80;99.90;;;;;;5010524;28;20057;-73
2023/10/31 10:12:02;;;;;;;32.17;24.08;;;9.80;99.90;;;;;;5020284;28;20147;-73
2023/10/31 10:14:31;;;;;;;34.30;24.17;;;9.70;99.90;;;;;;5041961;28;20132;-73
2023/10/31 10:16:58;;;;;;;31.58;21.50;;;9.70;99.90;;;;;;5022638;28;20131;-73
2023/10/31 10:19:25;;;;;;;28.92;22.65;;;9.70;99.90;;;;;;5011086;28;20071;-73
2023/10/31 10:21:54;;;;;;;28.02;21.45;;;9.80;99.90;;;;;;5019491;28;20140;-73
2023/10/31 10:24:22;;;;;;;25.80;20.33;;;9.80;99.90;;;;;;5023895;28;20045;-74
2023/10/31 10:26:50;;;;;;;26.77;20.17;;;9.90;99.90;;;;;;5022435;28;20057;-73
2023/10/31 10:29:17;;;;;;;28.65;22.27;;;9.90;99.90;;;;;;5023604;28;20045;-73
2023/10/31 10:31:44;;;;;;;24.38;21.08;;;10.00;99.90;;;;;;5021794;28;20475;-73
2023/10/31 10:34:14;;;;;;;23.13;20.67;;;10.00;99.90;;;;;;5028099;28;20043;-74
2023/10/31 10:36:47;;;;;;;19.75;17.75;;;10.10;99.90;;;;;;5021606;28;20053;-74
2023/10/31 10:39:23;;;;;;;18.83;16.83;;;10.10;99.90;;;;;;5024919;28;20609;-74
2023/10/31 10:41:55;;;;;;;19.38;17.45;;;10.20;99.90;;;;;;5019872;28;20046;-74
2023/10/31 10:44:33;;;;;;;19.77;17.77;;;10.20;99.90;;;;;;5026628;28;20063;-75
2023/10/31 10:47:06;;;;;;;17.00;15.60;;;10.30;99.90;;;;;;5035519;28;20127;-74
2023/10/31 10:49:35;;;;;;;18.60;16.70;;;10.30;99.90;;;;;;5020125;28;20702;-74
2023/10/31 10:52:09;;;;;;;17.48;15.95;;;10.30;99.90;;;;;;5026034;28;20128;-74
2023/10/31 10:54:59;;;;;;;16.92;15.63;;;10.60;99.90;;;;;;5023604;28;20045;-73
2023/10/31 10:57:38;;;;;;;18.58;16.98;;;10.80;99.90;;;;;;5023854;28;20045;-73
2023/10/31 11:00:08;;;;;;;18.80;17.23;;;10.90;99.90;;;;;;5019692;28;20048;-74
2023/10/31 11:02:43;;;;;;;18.65;17.35;;;10.90;99.90;;;;;;5020955;28;20118;-74
2023/10/31 11:05:10;;;;;;;;;;;10.90;99.90;;;;;;5017497;28;20046;-74
2023/10/31 11:07:38;;;;;;;20.30;18.52;;;10.90;99.90;;;;;;5018764;28;19924;-74
2023/10/31 11:10:06;;;;;;;19.02;16.63;;;10.90;99.90;;;;;;5022608;28;20329;-74
2023/10/31 11:12:33;;;;;;;16.85;15.25;;;10.70;99.90;;;;;;5024506;28;20057;-75
2023/10/31 11:15:03;;;;;;;18.48;16.88;;;10.60;99.90;;;;;;5006464;28;20041;-75
2023/10/31 11:17:41;;;;;;;17.52;16.00;;;10.50;99.90;;;;;;5018039;28;20115;-74
2023/10/31 11:20:11;;;;;;;15.63;14.15;;;10.40;99.90;;;;;;5023083;28;20045;-74
2023/10/31 11:22:45;;;;;;;17.02;15.32;;;10.30;99.90;;;;;;5026461;28;20037;-74
2023/10/31 11:25:15;;;;;;;18.45;16.17;;;10.30;99.90;;;;;;5024124;28;20052;-77
2023/10/31 11:27:57;;;;;;;17.27;15.38;;;10.30;99.90;;;;;;5021857;28;20130;-77
2023/10/31 11:30:28;;;;;;;16.83;14.73;;;10.40;99.90;;;;;;5021066;28;20132;-71
2023/10/31 11:32:59;;;;;;;14.88;13.45;;;10.40;99.90;;;;;;5037375;28;20075;-72
2023/10/31 11:35:30;;;;;;;19.52;15.63;;;10.40;99.90;;;;;;5026507;28;20052;-71
2023/10/31 11:38:08;;;;;;;17.58;15.75;;;10.70;99.90;;;;;;5010636;28;20148;-72
2023/10/31 11:40:37;;;;;;;18.85;17.13;;;10.90;99.90;;;;;;5010726;28;20053;-72
2023/10/31 11:43:05;;;;;;;17.85;16.27;;;11.10;99.90;;;;;;5027946;28;20048;-73
2023/10/31 11:45:44;;;;;;;18.77;17.20;;;11.20;99.90;;;;;;5026589;28;20045;-75
2023/10/31 11:48:12;;;;;;;19.65;18.13;;;11.20;99.90;;;;;;5025679;28;20037;-73
2023/10/31 11:50:39;;;;;;;19.35;17.75;;;11.10;99.90;;;;;;5027099;28;20033;-74
2023/10/31 11:53:08;;;;;;;18.80;17.20;;;11.20;99.90;;;;;;5023574;28;21163;-72
2023/10/31 11:55:49;;;;;;;18.70;17.20;;;11.10;99.90;;;;;;5021901;28;20033;-72
2023/10/31 11:58:21;;;;;;;19.85;18.42;;;11.20;99.90;;;;;;5024749;28;20049;-72
2023/10/31 12:00:50;;;;;;;21.08;19.35;;;11.30;99.90;;;;;;5023267;28;20048;-72
2023/10/31 12:03:20;;;;;;;21.27;19.73;;;11.40;99.90;;;;;;5030636;28;20057;-74
2023/10/31 12:05:54;;;;;;;20.52;18.90;;;11.50;99.90;;;;;;5024374;28;20045;-73
2023/10/31 12:08:35;;;;;;;;;;;11.50;99.90;;;;;;5024944;28;20051;-74
2023/10/31 12:11:06;;;;;;;21.48;19.98;;;11.50;99.90;;;;;;5038439;28;19925;-74
2023/10/31 12:13:34;;;;;;;23.02;21.20;;;11.50;99.90;;;;;;5025738;28;20049;-73
2023/10/31 12:16:01;;;;;;;22.90;21.15;;;11.60;99.90;;;;;;5025885;28;20114;-73
2023/10/31 12:18:28;;;;;;;23.20;21.48;;;11.50;99.90;;;;;;5023360;28;20440;-73
2023/10/31 12:20:56;;;;;;;22.25;20.60;;;11.40;99.90;;;;;;5023928;28;20040;-73
2023/10/31 12:23:23;;;;;;;21.05;19.65;;;11.30;99.90;;;;;;5026659;28;20044;-73
2023/10/31 12:25:53;;;;;;;22.92;21.20;;;11.40;99.90;;;;;;5023676;28;20029;-73
2023/10/31 12:28:24;;;;;;;23.98;22.17;;;11.50;99.90;;;;;;5031874;28;20056;-74
2023/10/31 12:30:57;;;;;;;25.55;23.55;;;11.40;99.90;;;;;;5043598;28;20601;-74
2023/10/31 12:33:27;;;;;;;26.15;23.73;;;11.40;99.90;;;;;;5028818;28;20049;-74
2023/10/31 12:35:59;;;;;;;25.98;23.80;;;11.30;99.90;;;;;;5027606;28;20140;-74
2023/10/31 12:38:26;;;;;;;27.35;24.70;;;11.40;99.90;;;;;;5036604;28;20030;-73
2023/10/31 12:40:55;;;;;;;25.52;23.63;;;11.40;99.90;;;;;;5055693;28;20029;-72